首页
METAR-TAF:

METAR-TAF

机场 :

仁川國際機場

仁川国际机场, 大韩民国

纬度: 37-28N, 经度: 126-27E, 海拔: 7米

当前天气观测

该预报发布于41分钟前的04:00 UTC
风速12节,风向西北
温度 5°C
湿度 70%
气压 1018 hPa
能見度: 2500
阴天层高于2500英尺
小雨, 轻雾

METAR: RKSI 190400Z 31012KT 2500 -RA BR OVC025 05/M00 Q1018 NOSIG

时间: 13:41 (04:41 UTC)

预报

该预报发布于1小时和31分钟前的03:10 UTC
预报有效从19日的 03点(UTC)到 20日的 06点(UTC)
风速13节,风向西转西北
能見度: 3500
少量云层高于1000英尺
多云层高于3000英尺
阴天层高于10000英尺
轻雾
短暂存在
从 19日的 03点(UTC)到 19日的 05点(UTC)
风速15节,风向西转西北,有时为30节阵风
能見度: 1400
小雨
成为
从 19日的 06点(UTC)到 19日的 07点(UTC)
能見度: 6000
成为
从 19日的 09点(UTC)到 19日的 10点(UTC)
风速12节,风向西北
散云层高于3000英尺
成为
从 19日的 16点(UTC)到 19日的 17点(UTC)
多云层高于3000英尺
短暂存在
从 20日的 03点(UTC)到 20日的 06点(UTC)
风速6节,风向西

TAF: RKSI 190310Z 1903/2006 29013KT 3500 BR FEW010 BKN030 OVC100 TX06/1904Z TNM03/1923Z TX04/2004Z TEMPO 1903/1905 29015G30KT 1400 -RA BECMG 1906/1907 6000 NSW BECMG 1909/1910 32012KT SCT030 BECMG 1916/1917 BKN030 TEMPO 2003/2006 26006KT

超过4000个机场的气象观测和天气预报(METAR&TAF报告)。

可查询的气象台以黄色和红色小点在地图上表示。

将鼠标移到小点上方,可查看气象台名称。

然后点击查看天气观测和预报。

如需切换地图:点击带黑十字的绿色按钮放大地图;点击带横线的绿色按钮缩小地图;或者点击绿色箭头查看邻近地区的地图。


METAR-TAF: